TGPY/GND METAR and TAF weather

Enter ICAO airport designator
Station Type Date Time Source
TGPY METAR 2019/02/20 07:00 UTC NOAA

TGPY 200700Z 10004KT 9999 -RA FEW019 24/21 Q1014 NOSIG


Station Type Date Time Source
TGPY Decoded METAR 2019/02/20 07:00 UTC NOAA

Point Salines Airport, Grenada (TGPY) 12-00N 061-47W 7M
Feb 20, 2019 - 02:00 AM EST / 2019.02.20 0700 UTC
Wind: from the E (100 degrees) at 5 MPH (4 KT):0
Visibility: greater than 7 mile(s):0
Sky conditions: mostly clear
Weather: light rain
Temperature: 75 F (24 C)
Dew Point: 69 F (21 C)
Relative Humidity: 83%
Pressure (altimeter): 29.94 in. Hg (1014 hPa)
ob: TGPY 200700Z 10004KT 9999 -RA FEW019 24/21 Q1014 NOSIG
cycle: 7

Station Type Date Time Source
TGPY TAF 2019/02/20 06:56 UTC NOAA

TAF TGPY 200400Z 2006/2106 09006KT 9999 FEW020


Example: see airport list